createdAt,value
2019-02-14T00:00:47.637Z,101824.02
2019-02-14T00:03:16.747Z,101824.31
2019-02-14T00:05:45.873Z,101822.48
2019-02-14T00:08:16.650Z,101822.55
2019-02-14T00:10:45.777Z,101818.07
2019-02-14T00:13:14.914Z,101819.23
2019-02-14T00:15:47.103Z,101826.09
2019-02-14T00:18:16.262Z,101825.39
2019-02-14T00:20:45.389Z,101831.61
2019-02-14T00:23:14.543Z,101831.14
2019-02-14T00:25:47.249Z,101824.50
2019-02-14T00:28:16.388Z,101828.52
2019-02-14T00:30:45.531Z,101824.28
2019-02-14T00:33:15.624Z,101824.89
2019-02-14T00:35:44.748Z,101824.83
2019-02-14T00:38:13.951Z,101821.32
2019-02-14T00:40:43.084Z,101824.50
2019-02-14T00:43:12.257Z,101827.96
2019-02-14T00:45:41.360Z,101825.78
2019-02-14T00:48:10.522Z,101829.47
2019-02-14T00:50:39.651Z,101831.98
2019-02-14T00:53:08.872Z,101826.88
2019-02-14T00:55:38.002Z,101830.19
2019-02-14T00:58:08.028Z,101823.97
2019-02-14T01:00:37.166Z,101826.70
2019-02-14T01:03:06.317Z,101831.28
2019-02-14T01:05:35.467Z,101827.34
2019-02-14T01:08:04.605Z,101829.37
2019-02-14T01:10:33.748Z,101827.77
2019-02-14T01:13:04.521Z,101825.42
2019-02-14T01:15:33.843Z,101817.31
2019-02-14T01:18:02.977Z,101808.78
2019-02-14T01:20:32.132Z,101806.41
2019-02-14T01:23:01.257Z,101802.47
2019-02-14T01:25:30.420Z,101799.81
2019-02-14T01:27:59.548Z,101794.23
2019-02-14T01:30:28.697Z,101790.47
2019-02-14T01:32:57.829Z,101786.92
2019-02-14T01:35:26.975Z,101789.03
2019-02-14T01:37:56.093Z,101794.97
2019-02-14T01:40:25.238Z,101798.20
2019-02-14T01:42:54.376Z,101800.38
2019-02-14T01:45:23.524Z,101801.67
2019-02-14T01:47:52.622Z,101798.46
2019-02-14T01:50:21.779Z,101796.15
2019-02-14T01:52:50.899Z,101799.97
2019-02-14T01:55:20.040Z,101803.31
2019-02-14T01:57:49.204Z,101806.05
2019-02-14T02:00:18.416Z,101808.60
2019-02-14T02:02:47.567Z,101806.31
2019-02-14T02:05:16.703Z,101805.34
2019-02-14T02:07:45.846Z,101806.80
2019-02-14T02:10:14.978Z,101804.88
2019-02-14T02:12:45.827Z,101806.08
2019-02-14T02:15:15.625Z,101816.37
2019-02-14T02:17:44.759Z,101809.36
2019-02-14T02:20:13.880Z,101809.37
2019-02-14T02:22:44.653Z,101810.05
2019-02-14T02:25:13.777Z,101810.93
2019-02-14T02:27:42.929Z,101814.97
2019-02-14T02:30:14.768Z,101822.96
2019-02-14T02:32:43.918Z,101818.38
2019-02-14T02:35:13.044Z,101819.58
2019-02-14T02:37:42.205Z,101819.12
2019-02-14T02:40:11.334Z,101816.34
2019-02-14T02:42:43.215Z,101817.94
2019-02-14T02:45:13.275Z,101821.30
2019-02-14T02:47:42.422Z,101823.55
2019-02-14T02:50:12.864Z,101820.87
2019-02-14T02:52:42.017Z,101819.84
2019-02-14T02:55:11.594Z,101820.00
2019-02-14T02:57:40.901Z,101817.63
2019-02-14T03:00:14.968Z,101816.87
2019-02-14T03:02:44.061Z,101821.85
2019-02-14T03:05:16.717Z,101815.00
2019-02-14T03:07:45.845Z,101816.19
2019-02-14T03:10:15.015Z,101813.76
2019-02-14T03:12:44.185Z,101815.93
2019-02-14T03:15:15.046Z,101815.78
2019-02-14T03:17:44.246Z,101812.42
2019-02-14T03:20:15.387Z,101811.00
2019-02-14T03:22:44.510Z,101805.61
2019-02-14T03:25:19.288Z,101811.11
2019-02-14T03:27:50.032Z,101817.20
2019-02-14T03:30:19.222Z,101814.98
2019-02-14T03:32:48.359Z,101815.41
2019-02-14T03:35:17.514Z,101814.56
2019-02-14T03:37:46.619Z,101817.05
2019-02-14T03:40:15.927Z,101816.89
2019-02-14T03:42:45.076Z,101810.50
2019-02-14T03:45:21.889Z,101815.87
2019-02-14T03:47:51.015Z,101821.91
2019-02-14T03:50:20.152Z,101829.31
2019-02-14T03:52:49.277Z,101822.86
2019-02-14T03:55:18.490Z,101826.45
2019-02-14T03:57:47.633Z,101824.09
2019-02-14T04:00:19.563Z,101818.19
2019-02-14T04:02:48.689Z,101814.28
2019-02-14T04:05:17.838Z,101808.80
2019-02-14T04:07:46.954Z,101810.78
2019-02-14T04:10:16.168Z,101814.56
2019-02-14T04:12:45.302Z,101822.73
2019-02-14T04:15:18.690Z,101831.05
2019-02-14T04:17:47.821Z,101831.75
2019-02-14T04:20:16.967Z,101825.66
2019-02-14T04:22:47.749Z,101826.70
2019-02-14T04:25:16.927Z,101834.31
2019-02-14T04:27:46.044Z,101834.26
2019-02-14T04:30:15.416Z,101829.72
2019-02-14T04:32:44.588Z,101828.28
2019-02-14T04:35:13.730Z,101825.89
2019-02-14T04:37:42.878Z,101837.97
2019-02-14T04:40:13.415Z,101838.85
2019-02-14T04:42:42.549Z,101834.69
2019-02-14T04:45:13.134Z,101837.64
2019-02-14T04:47:42.978Z,101836.27
2019-02-14T04:50:12.594Z,101843.19
2019-02-14T04:52:41.754Z,101841.45
2019-02-14T04:55:11.712Z,101834.34
2019-02-14T04:57:40.957Z,101839.05
2019-02-14T05:00:17.390Z,101840.09
2019-02-14T05:02:46.537Z,101838.55
2019-02-14T05:05:15.736Z,101834.56
2019-02-14T05:07:44.984Z,101840.08
2019-02-14T05:10:14.102Z,101831.17
2019-02-14T05:12:43.251Z,101839.45
2019-02-14T05:15:13.997Z,101838.53
2019-02-14T05:17:43.146Z,101834.82
2019-02-14T05:20:15.065Z,101831.98
2019-02-14T05:22:44.204Z,101830.77
2019-02-14T05:25:13.348Z,101835.56
2019-02-14T05:27:42.464Z,101833.66
2019-02-14T05:30:18.797Z,101837.44
2019-02-14T05:32:47.961Z,101836.06
2019-02-14T05:35:17.094Z,101838.35
2019-02-14T05:37:46.477Z,101838.05
2019-02-14T05:40:15.697Z,101842.59
2019-02-14T05:42:44.794Z,101839.25
2019-02-14T05:45:14.827Z,101841.03
2019-02-14T05:47:43.941Z,101840.11
2019-02-14T05:50:14.643Z,101840.03
2019-02-14T05:52:43.774Z,101852.06
2019-02-14T05:55:13.478Z,101845.74
2019-02-14T05:57:42.753Z,101850.20
2019-02-14T06:00:20.122Z,101856.05
2019-02-14T06:02:49.268Z,101858.01
2019-02-14T06:05:18.406Z,101862.95
2019-02-14T06:07:47.514Z,101866.11
2019-02-14T06:10:18.713Z,101865.51
2019-02-14T06:12:47.613Z,101864.66
2019-02-14T06:15:16.759Z,101867.14
2019-02-14T06:17:47.523Z,101874.73
2019-02-14T06:20:16.674Z,101874.83
2019-02-14T06:22:45.791Z,101882.02
2019-02-14T06:25:15.024Z,101883.58
2019-02-14T06:27:44.145Z,101883.48
2019-02-14T06:30:15.647Z,101890.33
2019-02-14T06:32:44.767Z,101888.44
2019-02-14T06:35:13.913Z,101893.73
2019-02-14T06:37:43.087Z,101896.02
2019-02-14T06:40:13.938Z,101896.08
2019-02-14T06:42:45.494Z,101894.87
2019-02-14T06:45:17.960Z,101897.52
2019-02-14T06:47:47.109Z,101896.55
2019-02-14T06:50:16.317Z,101898.55
2019-02-14T06:52:45.484Z,101903.28
2019-02-14T06:55:14.619Z,101910.58
2019-02-14T06:57:43.786Z,101908.37
2019-02-14T07:00:17.169Z,101918.25
2019-02-14T07:02:46.326Z,101918.39
2019-02-14T07:05:15.447Z,101917.38
2019-02-14T07:07:44.624Z,101928.31
2019-02-14T07:10:15.890Z,101937.83
2019-02-14T07:12:45.064Z,101932.53
2019-02-14T07:15:15.097Z,101931.72
2019-02-14T07:17:44.263Z,101926.37
2019-02-14T07:20:17.922Z,101925.65
2019-02-14T07:22:47.066Z,101926.89
2019-02-14T07:25:16.203Z,101929.11
2019-02-14T07:27:45.389Z,101929.92
2019-02-14T07:30:27.019Z,101932.10
2019-02-14T07:32:56.141Z,101933.32
2019-02-14T07:35:25.273Z,101943.33
2019-02-14T07:37:54.442Z,101951.45
2019-02-14T07:40:23.567Z,101945.82
2019-02-14T07:42:52.703Z,101946.88
2019-02-14T07:45:21.921Z,101951.20
2019-02-14T07:47:51.051Z,101957.89
2019-02-14T07:50:20.194Z,101951.05
2019-02-14T07:52:49.364Z,101955.23
2019-02-14T07:55:18.596Z,101953.84
2019-02-14T07:57:47.824Z,101954.39
2019-02-14T08:00:18.770Z,101958.65
2019-02-14T08:02:47.900Z,101959.75
2019-02-14T08:05:17.043Z,101963.09
2019-02-14T08:07:46.178Z,101966.95
2019-02-14T08:10:19.373Z,101966.95
2019-02-14T08:12:48.513Z,101964.86
2019-02-14T08:15:17.681Z,101963.83
2019-02-14T08:17:46.802Z,101965.05
2019-02-14T08:20:21.193Z,101958.73
2019-02-14T08:22:50.326Z,101962.85
2019-02-14T08:25:19.506Z,101953.21
2019-02-14T08:27:48.629Z,101959.34
2019-02-14T08:30:19.791Z,101960.80
2019-02-14T08:32:48.911Z,101962.41
2019-02-14T08:35:18.087Z,101963.95
2019-02-14T08:37:47.224Z,101965.48
2019-02-14T08:40:26.976Z,101963.25
2019-02-14T08:42:56.114Z,101968.27
2019-02-14T08:45:25.259Z,101966.79
2019-02-14T08:47:54.384Z,101966.30
2019-02-14T08:50:25.247Z,101971.64
2019-02-14T08:52:54.341Z,101977.50
2019-02-14T08:55:23.513Z,101976.14
2019-02-14T08:57:52.666Z,101975.23
2019-02-14T09:00:21.826Z,101972.80
2019-02-14T09:02:50.964Z,101968.31
2019-02-14T09:05:20.102Z,101964.72
2019-02-14T09:07:54.582Z,101966.53
2019-02-14T09:10:20.100Z,101960.89
2019-02-14T09:12:49.219Z,101961.01
2019-02-14T09:15:18.382Z,101959.00
2019-02-14T09:17:49.155Z,101962.17
2019-02-14T09:20:22.367Z,101963.11
2019-02-14T09:22:51.536Z,101962.14
2019-02-14T09:25:20.676Z,101954.78
2019-02-14T09:27:49.821Z,101960.88
2019-02-14T09:30:18.947Z,101957.25
2019-02-14T09:32:48.152Z,101953.30
2019-02-14T09:35:17.295Z,101951.04
2019-02-14T09:37:46.452Z,101949.25
2019-02-14T09:40:17.777Z,101949.38
2019-02-14T09:42:46.945Z,101949.42
2019-02-14T09:45:16.095Z,101952.83
2019-02-14T09:47:45.222Z,101952.98
2019-02-14T09:50:15.462Z,101947.13
2019-02-14T09:52:46.588Z,101946.70
2019-02-14T09:55:15.527Z,101948.59
2019-02-14T09:57:44.731Z,101942.81
2019-02-14T10:00:18.997Z,101942.12
2019-02-14T10:02:48.118Z,101942.42
2019-02-14T10:05:17.344Z,101938.95
2019-02-14T10:07:46.473Z,101936.41
2019-02-14T10:10:26.031Z,101934.11
2019-02-14T10:12:55.174Z,101935.63
2019-02-14T10:15:24.322Z,101936.56
2019-02-14T10:17:53.464Z,101938.02
2019-02-14T10:20:22.588Z,101937.32
2019-02-14T10:22:51.756Z,101933.35
2019-02-14T10:25:20.904Z,101933.56
2019-02-14T10:27:50.049Z,101933.36
2019-02-14T10:30:23.709Z,101936.02
2019-02-14T10:32:54.731Z,101933.56
2019-02-14T10:35:25.507Z,101937.87
2019-02-14T10:37:54.667Z,101937.99
2019-02-14T10:40:23.786Z,101934.23
2019-02-14T10:42:52.937Z,101930.66
2019-02-14T10:45:23.444Z,101925.20
2019-02-14T10:47:52.592Z,101924.87
2019-02-14T10:50:21.757Z,101926.16
2019-02-14T10:52:50.863Z,101920.65
2019-02-14T10:55:19.974Z,101913.32
2019-02-14T10:57:49.210Z,101916.05
2019-02-14T11:00:26.577Z,101904.63
2019-02-14T11:02:55.743Z,101903.05
2019-02-14T11:05:24.891Z,101902.34
2019-02-14T11:07:54.012Z,101895.39
2019-02-14T11:10:23.185Z,101896.28
2019-02-14T11:12:52.395Z,101897.73
2019-02-14T11:15:24.059Z,101901.03
2019-02-14T11:17:53.174Z,101904.34
2019-02-14T11:20:22.304Z,101903.98
2019-02-14T11:22:51.422Z,101896.38
2019-02-14T11:25:38.873Z,101893.05
2019-02-14T11:28:07.998Z,101892.52
2019-02-14T11:30:37.148Z,101883.86
2019-02-14T11:33:06.274Z,101875.23
2019-02-14T11:35:35.402Z,101873.98
2019-02-14T11:38:04.518Z,101877.11
2019-02-14T11:40:33.672Z,101872.30
2019-02-14T11:43:02.816Z,101877.13
2019-02-14T11:45:31.978Z,101868.19
2019-02-14T11:48:01.086Z,101864.77
2019-02-14T11:50:30.242Z,101855.66
2019-02-14T11:53:01.011Z,101848.88
2019-02-14T11:55:30.140Z,101848.37
2019-02-14T11:57:59.282Z,101848.77
2019-02-14T12:00:28.419Z,101841.52
2019-02-14T12:02:57.629Z,101840.78
2019-02-14T12:05:26.787Z,101838.89
2019-02-14T12:07:55.915Z,101838.77
2019-02-14T12:10:25.067Z,101847.80
2019-02-14T12:12:54.191Z,101834.61
2019-02-14T12:15:23.625Z,101837.51
2019-02-14T12:17:52.756Z,101832.47
2019-02-14T12:20:21.919Z,101830.11
2019-02-14T12:22:51.056Z,101826.85
2019-02-14T12:25:29.792Z,101827.97
2019-02-14T12:27:58.919Z,101817.75
2019-02-14T12:30:28.448Z,101810.88
2019-02-14T12:32:57.570Z,101809.75
2019-02-14T12:35:26.720Z,101802.68
2019-02-14T12:37:55.878Z,101802.77
2019-02-14T12:40:25.063Z,101796.55
2019-02-14T12:42:54.206Z,101791.77
2019-02-14T12:45:27.757Z,101789.65
2019-02-14T12:47:58.564Z,101787.53
2019-02-14T12:50:27.687Z,101782.45
2019-02-14T12:52:56.857Z,101782.92
2019-02-14T12:55:25.982Z,101776.21
2019-02-14T12:57:55.122Z,101773.19
2019-02-14T13:00:25.003Z,101770.15
2019-02-14T13:02:54.137Z,101763.92
2019-02-14T13:05:23.267Z,101765.73
2019-02-14T13:07:52.430Z,101759.50
2019-02-14T13:10:21.557Z,101755.12
2019-02-14T13:12:50.711Z,101749.71
2019-02-14T13:15:26.041Z,101748.81
2019-02-14T13:17:55.203Z,101741.81
2019-02-14T13:20:24.342Z,101742.22
2019-02-14T13:22:53.483Z,101737.59
2019-02-14T13:25:22.612Z,101745.49
2019-02-14T13:27:51.791Z,101744.59
2019-02-14T13:30:26.191Z,101738.09
2019-02-14T13:32:55.365Z,101740.19
2019-02-14T13:35:24.489Z,101739.89
2019-02-14T13:37:53.618Z,101742.92
2019-02-14T13:40:22.753Z,101738.63
2019-02-14T13:42:51.948Z,101735.59
2019-02-14T13:45:24.095Z,101736.70
2019-02-14T13:47:53.211Z,101729.66
2019-02-14T13:50:22.361Z,101732.89
2019-02-14T13:52:51.485Z,101737.72
2019-02-14T13:55:20.623Z,101733.38
2019-02-14T13:57:49.791Z,101724.52
2019-02-14T14:00:23.106Z,101714.33
2019-02-14T14:02:52.237Z,101722.15
2019-02-14T14:05:21.408Z,101709.77
2019-02-14T14:07:50.540Z,101700.92
2019-02-14T14:10:19.699Z,101703.14
2019-02-14T14:12:48.825Z,101707.81
2019-02-14T14:15:18.005Z,101701.87
2019-02-14T14:17:47.144Z,101703.75
2019-02-14T14:20:18.971Z,101699.45
2019-02-14T14:22:48.283Z,101705.72
2019-02-14T14:25:17.464Z,101697.73
2019-02-14T14:27:46.588Z,101697.52
2019-02-14T14:30:15.747Z,101699.32
2019-02-14T14:32:44.899Z,101702.52
2019-02-14T14:35:14.052Z,101699.98
2019-02-14T14:37:43.361Z,101696.16
2019-02-14T14:40:15.417Z,101691.37
2019-02-14T14:42:52.178Z,101690.31
2019-02-14T14:45:23.168Z,101692.44
2019-02-14T14:47:52.392Z,101686.30
2019-02-14T14:50:21.533Z,101689.94
2019-02-14T14:52:50.710Z,101687.72
2019-02-14T14:55:19.836Z,101679.92
2019-02-14T14:57:49.069Z,101680.41
2019-02-14T15:00:18.213Z,101682.05
2019-02-14T15:02:47.444Z,101682.61
2019-02-14T15:05:16.578Z,101679.62
2019-02-14T15:07:45.840Z,101679.87
2019-02-14T15:10:14.980Z,101680.10
2019-02-14T15:12:44.147Z,101679.16
2019-02-14T15:15:13.304Z,101679.70
2019-02-14T15:17:44.103Z,101679.38
2019-02-14T15:20:13.253Z,101676.59
2019-02-14T15:22:42.445Z,101675.61
2019-02-14T15:25:14.391Z,101672.91
2019-02-14T15:27:43.546Z,101666.61
2019-02-14T15:30:12.696Z,101671.69
2019-02-14T15:32:41.909Z,101678.33
2019-02-14T15:35:11.073Z,101686.89
2019-02-14T15:37:41.834Z,101683.41
2019-02-14T15:40:11.088Z,101683.37
2019-02-14T15:42:40.279Z,101685.75
2019-02-14T15:45:10.268Z,101680.59
2019-02-14T15:47:41.051Z,101686.41
2019-02-14T15:50:10.282Z,101676.22
2019-02-14T15:52:39.454Z,101673.84
2019-02-14T15:55:08.991Z,101672.66
2019-02-14T15:57:40.600Z,101675.20
2019-02-14T16:00:13.463Z,101667.17
2019-02-14T16:02:42.707Z,101669.34
2019-02-14T16:05:11.953Z,101671.44
2019-02-14T16:07:41.503Z,101669.72
2019-02-14T16:10:18.229Z,101675.22
2019-02-14T16:12:43.543Z,101677.27
2019-02-14T16:15:12.606Z,101677.84
2019-02-14T16:17:41.733Z,101678.63
2019-02-14T16:20:11.042Z,101680.43
2019-02-14T16:22:42.470Z,101676.91
2019-02-14T16:25:12.620Z,101671.16
2019-02-14T16:27:41.827Z,101675.90
2019-02-14T16:30:11.985Z,101677.58
2019-02-14T16:32:41.228Z,101679.70
2019-02-14T16:35:10.447Z,101684.30
2019-02-14T16:37:39.660Z,101681.47
2019-02-14T16:40:10.272Z,101684.30
2019-02-14T16:42:39.436Z,101682.77
2019-02-14T16:45:10.833Z,101681.17
2019-02-14T16:47:39.963Z,101682.52
2019-02-14T16:50:10.768Z,101691.23
2019-02-14T16:52:39.897Z,101685.41
2019-02-14T16:55:09.105Z,101685.16
2019-02-14T16:57:38.336Z,101688.63
2019-02-14T17:00:11.883Z,101686.38
2019-02-14T17:02:41.044Z,101691.39
2019-02-14T17:05:10.228Z,101693.83
2019-02-14T17:07:39.378Z,101695.37
2019-02-14T17:10:11.303Z,101692.95
2019-02-14T17:12:40.458Z,101693.91
2019-02-14T17:15:10.638Z,101700.81
2019-02-14T17:17:39.824Z,101704.67
2019-02-14T17:20:11.359Z,101706.89
2019-02-14T17:22:40.528Z,101707.20
2019-02-14T17:25:09.660Z,101707.45
2019-02-14T17:27:38.911Z,101704.98
2019-02-14T17:30:09.805Z,101712.78
2019-02-14T17:32:38.953Z,101711.40
2019-02-14T17:35:08.453Z,101718.16
2019-02-14T17:37:37.679Z,101727.01
2019-02-14T17:40:09.618Z,101727.48
2019-02-14T17:42:38.793Z,101725.91
2019-02-14T17:45:09.862Z,101728.75
2019-02-14T17:47:39.023Z,101726.58
2019-02-14T17:50:09.315Z,101732.08
2019-02-14T17:52:38.461Z,101723.47
2019-02-14T17:55:09.994Z,101731.78
2019-02-14T17:57:39.196Z,101731.92
2019-02-14T18:00:11.989Z,101728.08
2019-02-14T18:02:41.175Z,101731.63
2019-02-14T18:05:10.581Z,101723.30
2019-02-14T18:07:39.755Z,101719.23
2019-02-14T18:10:12.314Z,101720.71
2019-02-14T18:12:41.460Z,101718.11
2019-02-14T18:15:15.877Z,101724.17
2019-02-14T18:17:45.030Z,101725.03
2019-02-14T18:20:15.862Z,101722.63
2019-02-14T18:22:45.083Z,101720.24
2019-02-14T18:25:14.229Z,101720.61
2019-02-14T18:27:43.349Z,101728.31
2019-02-14T18:30:13.138Z,101732.14
2019-02-14T18:32:42.277Z,101728.30
2019-02-14T18:35:12.582Z,101726.25
2019-02-14T18:37:41.932Z,101728.67
2019-02-14T18:40:12.307Z,101729.63
2019-02-14T18:42:45.697Z,101725.81
2019-02-14T18:45:14.977Z,101721.37
2019-02-14T18:47:44.129Z,101720.56
2019-02-14T18:50:14.529Z,101722.46
2019-02-14T18:52:43.647Z,101720.67
2019-02-14T18:55:13.003Z,101721.66
2019-02-14T18:57:42.154Z,101723.97
2019-02-14T19:00:16.982Z,101721.59
2019-02-14T19:02:46.169Z,101722.05
2019-02-14T19:05:15.351Z,101718.49
2019-02-14T19:07:44.482Z,101723.55
2019-02-14T19:10:19.593Z,101719.34
2019-02-14T19:12:48.752Z,101715.30
2019-02-14T19:15:17.915Z,101719.95
2019-02-14T19:17:47.079Z,101713.38
2019-02-14T19:20:16.244Z,101710.70
2019-02-14T19:22:45.378Z,101708.70
2019-02-14T19:25:14.571Z,101712.19
2019-02-14T19:27:43.691Z,101711.66
2019-02-14T19:30:14.871Z,101711.80
2019-02-14T19:32:44.041Z,101718.41
2019-02-14T19:35:13.179Z,101712.45
2019-02-14T19:37:42.365Z,101711.79
2019-02-14T19:40:11.610Z,101706.18
2019-02-14T19:42:46.990Z,101703.70
2019-02-14T19:45:16.189Z,101698.24
2019-02-14T19:47:47.253Z,101701.59
2019-02-14T19:50:18.068Z,101699.27
2019-02-14T19:52:47.239Z,101698.75
2019-02-14T19:55:16.407Z,101701.09
2019-02-14T19:57:48.583Z,101696.27
2019-02-14T20:00:17.730Z,101696.33
2019-02-14T20:02:46.931Z,101695.02
2019-02-14T20:05:16.097Z,101691.45
2019-02-14T20:07:45.274Z,101691.42
2019-02-14T20:10:15.441Z,101695.23
2019-02-14T20:12:44.654Z,101688.77
2019-02-14T20:15:22.516Z,101685.22
2019-02-14T20:17:51.678Z,101683.70
2019-02-14T20:20:20.913Z,101681.13
2019-02-14T20:22:50.100Z,101679.42
2019-02-14T20:25:24.115Z,101678.99
2019-02-14T20:27:53.297Z,101679.50
2019-02-14T20:30:22.442Z,101679.20
2019-02-14T20:32:51.678Z,101680.78
2019-02-14T20:35:20.800Z,101689.14
2019-02-14T20:37:49.934Z,101680.44
2019-02-14T20:40:20.726Z,101686.84
2019-02-14T20:42:52.796Z,101677.16
2019-02-14T20:45:28.967Z,101674.08
2019-02-14T20:47:58.169Z,101683.66
2019-02-14T20:50:27.497Z,101687.47
2019-02-14T20:52:56.691Z,101697.00
2019-02-14T20:55:30.055Z,101688.46
2019-02-14T20:58:01.806Z,101684.16
2019-02-14T21:00:31.841Z,101685.72
2019-02-14T21:03:01.259Z,101691.91
2019-02-14T21:05:30.968Z,101687.84
2019-02-14T21:08:01.957Z,101691.61
2019-02-14T21:10:32.025Z,101692.48
2019-02-14T21:13:03.167Z,101692.70
2019-02-14T21:15:32.415Z,101693.48
2019-02-14T21:18:01.555Z,101697.48
2019-02-14T21:20:30.722Z,101699.72
2019-02-14T21:22:59.934Z,101697.44
2019-02-14T21:25:29.227Z,101686.28
2019-02-14T21:27:59.623Z,101689.46
2019-02-14T21:30:28.772Z,101698.50
2019-02-14T21:32:57.994Z,101696.03
2019-02-14T21:35:27.157Z,101693.78
2019-02-14T21:37:56.299Z,101695.03
2019-02-14T21:40:25.483Z,101693.16
2019-02-14T21:42:54.620Z,101691.27
2019-02-14T21:45:23.775Z,101692.23
2019-02-14T21:47:52.925Z,101692.88
2019-02-14T21:50:22.093Z,101687.95
2019-02-14T21:52:51.253Z,101692.94
2019-02-14T21:55:20.511Z,101690.13
2019-02-14T21:57:49.623Z,101686.08
2019-02-14T22:00:28.142Z,101686.52
2019-02-14T22:02:57.359Z,101685.90
2019-02-14T22:05:26.941Z,101683.57
2019-02-14T22:07:56.229Z,101684.70
2019-02-14T22:10:25.381Z,101686.98
2019-02-14T22:12:54.554Z,101691.97
2019-02-14T22:15:30.171Z,101689.10
2019-02-14T22:17:59.418Z,101691.22
2019-02-14T22:20:28.560Z,101683.95
2019-02-14T22:22:57.732Z,101686.53
2019-02-14T22:25:26.858Z,101683.98
2019-02-14T22:27:56.023Z,101684.80
2019-02-14T22:30:25.165Z,101687.09
2019-02-14T22:32:54.336Z,101676.37
2019-02-14T22:35:23.472Z,101692.05
2019-02-14T22:37:52.623Z,101682.25
2019-02-14T22:40:21.763Z,101688.63
2019-02-14T22:42:50.908Z,101689.79
2019-02-14T22:45:20.047Z,101686.23
2019-02-14T22:47:49.173Z,101684.06
2019-02-14T22:50:18.328Z,101684.15
2019-02-14T22:52:47.450Z,101685.02
2019-02-14T22:55:16.625Z,101689.92
2019-02-14T22:57:45.754Z,101690.14
2019-02-14T23:00:34.781Z,101688.59
2019-02-14T23:03:03.989Z,101691.69
2019-02-14T23:05:33.142Z,101693.06
2019-02-14T23:08:02.282Z,101699.80
2019-02-14T23:10:31.448Z,101704.83
2019-02-14T23:13:02.361Z,101704.36
2019-02-14T23:15:31.529Z,101702.59
2019-02-14T23:18:00.651Z,101704.87
2019-02-14T23:20:29.788Z,101705.92
2019-02-14T23:22:58.928Z,101711.02
2019-02-14T23:25:28.070Z,101708.82
2019-02-14T23:27:57.661Z,101706.73
2019-02-14T23:30:26.803Z,101710.33
2019-02-14T23:32:55.930Z,101708.41
2019-02-14T23:35:25.111Z,101707.33
2019-02-14T23:37:54.196Z,101706.86
2019-02-14T23:40:23.350Z,101704.20
2019-02-14T23:42:52.466Z,101701.70
2019-02-14T23:45:21.631Z,101701.52
2019-02-14T23:47:50.823Z,101700.57
2019-02-14T23:50:19.965Z,101697.18
2019-02-14T23:52:49.113Z,101691.92
2019-02-14T23:55:18.243Z,101698.37
2019-02-14T23:57:47.381Z,101696.67
